Novy Urengoy, Russia
Current Conditions -  °F | °C
As of 2:00 AM on Tuesday 21 Oct 2014 (Local Time) from USRR Reporting Station
Light Snow Light Snow  
Wind Chill: 13°   Ceiling: 200
Heat Index: 19°   Visibility: 1.3mi
Dew Point: 19°   Wind: 4mph
Humidity: 100%   Direction: 20°NNE
Pressure: 29.26"   Gusts: NA
Location:  65.48°N, 76.52°E
Report Text: USRR 202100Z 02002MPS 2100 -SN BR OVC002 M07/M07 Q0991 TEMPO0800 FZFG VV002 RMK QBB080 OBST OBSC QFE739 07////35
Loading
Personal Weather Stations






























Interactive Weather Map
Tropical Storm Tracking
New forecast layout! Learn more

10-Day Weather Forecast

Advertisements
Track Severe Weather on mobile